createdAt,value
2023-03-11T00:00:22.520Z,10.51
2023-03-11T00:03:12.178Z,10.36
2023-03-11T00:05:42.370Z,10.23
2023-03-11T00:08:16.030Z,10.10
2023-03-11T00:10:45.407Z,9.98
2023-03-11T00:13:14.066Z,9.91
2023-03-11T00:15:42.269Z,9.80
2023-03-11T00:18:09.001Z,9.71
2023-03-11T00:20:38.589Z,9.61
2023-03-11T00:23:07.895Z,9.52
2023-03-11T00:25:37.566Z,9.45
2023-03-11T00:28:06.791Z,9.42
2023-03-11T00:30:33.530Z,9.34
2023-03-11T00:33:00.714Z,9.28
2023-03-11T00:35:30.592Z,9.23
2023-03-11T00:38:00.355Z,9.23
2023-03-11T00:40:29.671Z,9.19
2023-03-11T00:42:57.631Z,9.14
2023-03-11T00:45:25.333Z,9.18
2023-03-11T00:47:52.410Z,9.24
2023-03-11T00:50:23.853Z,9.33
2023-03-11T00:52:51.776Z,9.40
2023-03-11T00:55:22.797Z,9.46
2023-03-11T00:57:56.655Z,9.52
2023-03-11T01:00:27.726Z,9.55
2023-03-11T01:02:56.976Z,9.59
2023-03-11T01:05:30.223Z,9.62
2023-03-11T01:07:57.251Z,9.69
2023-03-11T01:10:24.234Z,9.76
2023-03-11T01:12:51.288Z,9.79
2023-03-11T01:15:24.736Z,9.81
2023-03-11T01:17:51.359Z,9.80
2023-03-11T01:20:18.293Z,9.84
2023-03-11T01:22:44.984Z,9.86
2023-03-11T01:25:14.400Z,9.86
2023-03-11T01:27:41.967Z,9.80
2023-03-11T01:30:12.619Z,9.73
2023-03-11T01:32:39.440Z,9.72
2023-03-11T01:35:06.781Z,9.71
2023-03-11T01:37:33.378Z,9.70
2023-03-11T01:40:00.297Z,9.72
2023-03-11T01:42:27.263Z,9.79
2023-03-11T01:44:55.081Z,9.77
2023-03-11T01:47:37.968Z,9.66
2023-03-11T01:50:10.978Z,9.67
2023-03-11T01:52:37.990Z,9.59
2023-03-11T01:55:06.162Z,9.54
2023-03-11T01:57:33.299Z,9.52
2023-03-11T02:00:04.803Z,9.47
2023-03-11T02:02:48.786Z,9.42
2023-03-11T02:05:16.187Z,9.50
2023-03-11T02:07:42.737Z,9.55
2023-03-11T02:10:13.048Z,9.54
2023-03-11T02:12:42.046Z,9.57
2023-03-11T02:15:10.437Z,9.65
2023-03-11T02:17:39.782Z,9.72
2023-03-11T02:20:26.677Z,9.75
2023-03-11T02:22:56.680Z,9.78
2023-03-11T02:25:42.468Z,9.83
2023-03-11T02:28:12.120Z,9.86
2023-03-11T02:30:41.745Z,9.86
2023-03-11T02:33:09.653Z,9.82
2023-03-11T02:35:36.567Z,9.82
2023-03-11T02:38:03.388Z,9.84
2023-03-11T02:40:40.930Z,9.83
2023-03-11T02:43:12.869Z,9.80
2023-03-11T02:45:43.337Z,9.69
2023-03-11T02:48:11.741Z,9.72
2023-03-11T02:50:39.881Z,9.78
2023-03-11T02:53:07.487Z,9.82
2023-03-11T02:55:34.553Z,9.82
2023-03-11T02:58:01.389Z,9.84
2023-03-11T03:00:28.300Z,9.86
2023-03-11T03:03:01.735Z,9.88
2023-03-11T03:05:28.902Z,9.90
2023-03-11T03:07:56.678Z,9.89
2023-03-11T03:10:23.846Z,9.91
2023-03-11T03:12:50.623Z,9.91
2023-03-11T03:15:17.433Z,9.93
2023-03-11T03:17:45.561Z,9.93
2023-03-11T03:20:13.452Z,9.92
2023-03-11T03:22:43.808Z,9.88
2023-03-11T03:25:11.710Z,9.87
2023-03-11T03:27:38.649Z,9.89
2023-03-11T03:30:07.560Z,9.90
2023-03-11T03:32:35.386Z,9.82
2023-03-11T03:35:03.317Z,9.76
2023-03-11T03:37:43.420Z,9.71
2023-03-11T03:40:10.732Z,9.67
2023-03-11T03:42:38.018Z,9.68
2023-03-11T03:45:07.273Z,9.67
2023-03-11T03:47:35.596Z,9.71
2023-03-11T03:50:08.659Z,9.75
2023-03-11T03:52:36.796Z,9.83
2023-03-11T03:55:05.657Z,9.88
2023-03-11T03:57:32.505Z,9.94
2023-03-11T03:59:59.243Z,9.93
2023-03-11T04:02:27.545Z,9.91
2023-03-11T04:04:56.308Z,9.91
2023-03-11T04:07:23.191Z,9.91
2023-03-11T04:09:50.611Z,9.90
2023-03-11T04:12:17.431Z,9.91
2023-03-11T04:14:44.660Z,9.92
2023-03-11T04:17:13.793Z,9.95
2023-03-11T04:19:40.746Z,9.99
2023-03-11T04:22:08.181Z,10.03
2023-03-11T04:24:35.256Z,10.06
2023-03-11T04:27:02.401Z,10.04
2023-03-11T04:29:29.577Z,10.02
2023-03-11T04:31:56.305Z,10.02
2023-03-11T04:34:23.035Z,10.04
2023-03-11T04:36:54.289Z,10.03
2023-03-11T04:39:23.372Z,9.98
2023-03-11T04:41:50.623Z,9.91
2023-03-11T04:44:19.926Z,9.83
2023-03-11T04:46:47.073Z,9.73
2023-03-11T04:49:15.036Z,9.60
2023-03-11T04:51:42.389Z,9.57
2023-03-11T04:54:09.789Z,9.52
2023-03-11T04:56:36.720Z,9.47
2023-03-11T04:59:03.654Z,9.39
2023-03-11T05:01:30.706Z,9.34
2023-03-11T05:03:58.687Z,9.26
2023-03-11T05:06:25.503Z,9.25
2023-03-11T05:08:52.100Z,9.24
2023-03-11T05:11:18.879Z,9.18
2023-03-11T05:13:46.423Z,9.17
2023-03-11T05:16:13.333Z,9.16
2023-03-11T05:18:40.202Z,9.17
2023-03-11T05:21:06.932Z,9.16
2023-03-11T05:23:34.015Z,9.16
2023-03-11T05:26:01.080Z,9.12
2023-03-11T05:28:28.437Z,9.15
2023-03-11T05:30:55.420Z,9.15
2023-03-11T05:33:22.785Z,9.12
2023-03-11T05:35:51.473Z,9.08
2023-03-11T05:38:18.495Z,9.06
2023-03-11T05:40:45.298Z,9.06
2023-03-11T05:43:12.218Z,9.02
2023-03-11T05:45:40.519Z,8.98
2023-03-11T05:48:07.375Z,8.97
2023-03-11T05:50:34.446Z,8.97
2023-03-11T05:53:01.197Z,8.98
2023-03-11T05:55:29.527Z,8.94
2023-03-11T05:57:56.438Z,8.90
2023-03-11T06:00:23.381Z,8.93
2023-03-11T06:02:50.483Z,8.94
2023-03-11T06:05:18.478Z,8.94
2023-03-11T06:07:46.284Z,8.98
2023-03-11T06:10:13.112Z,9.00
2023-03-11T06:12:40.510Z,9.03
2023-03-11T06:15:33.872Z,9.07
2023-03-11T06:18:00.651Z,9.06
2023-03-11T06:20:28.172Z,9.10
2023-03-11T06:22:55.135Z,9.17
2023-03-11T06:25:23.220Z,9.19
2023-03-11T06:27:52.688Z,9.22
2023-03-11T06:30:20.356Z,9.29
2023-03-11T06:33:08.601Z,9.41
2023-03-11T06:35:35.497Z,9.45
2023-03-11T06:38:02.287Z,9.43
2023-03-11T06:40:29.026Z,9.47
2023-03-11T06:42:55.968Z,9.50
2023-03-11T06:45:23.120Z,9.54
2023-03-11T06:47:50.481Z,9.61
2023-03-11T06:50:17.383Z,9.64
2023-03-11T06:52:44.149Z,9.62
2023-03-11T06:55:10.898Z,9.63
2023-03-11T06:57:37.471Z,9.67
2023-03-11T07:00:09.708Z,9.74
2023-03-11T07:02:36.359Z,9.81
2023-03-11T07:05:03.985Z,9.86
2023-03-11T07:07:31.261Z,9.91
2023-03-11T07:09:59.630Z,9.97
2023-03-11T07:12:26.368Z,10.06
2023-03-11T07:14:58.448Z,10.13
2023-03-11T07:17:26.412Z,10.16
2023-03-11T07:19:54.009Z,10.25
2023-03-11T07:22:20.779Z,10.26
2023-03-11T07:24:48.736Z,10.35
2023-03-11T07:27:15.730Z,10.27
2023-03-11T07:29:42.705Z,10.27
2023-03-11T07:32:09.948Z,10.30
2023-03-11T07:34:36.555Z,10.33
2023-03-11T07:37:03.749Z,10.45
2023-03-11T07:39:30.399Z,10.61
2023-03-11T07:41:57.048Z,10.69
2023-03-11T07:44:29.327Z,10.77
2023-03-11T07:46:55.974Z,10.85
2023-03-11T07:49:22.670Z,10.97
2023-03-11T07:51:49.324Z,11.03
2023-03-11T07:54:16.031Z,11.15
2023-03-11T07:56:42.611Z,11.41
2023-03-11T07:59:09.470Z,12.67
2023-03-11T08:01:36.227Z,15.45
2023-03-11T08:04:05.488Z,17.13
2023-03-11T08:06:34.468Z,17.39
2023-03-11T08:09:04.639Z,17.37
2023-03-11T08:11:32.055Z,17.60
2023-03-11T08:13:59.289Z,17.92
2023-03-11T08:16:26.903Z,18.04
2023-03-11T08:18:54.036Z,18.01
2023-03-11T08:21:26.057Z,18.07
2023-03-11T08:23:57.046Z,18.40
2023-03-11T08:26:24.295Z,18.78
2023-03-11T08:28:51.001Z,19.14
2023-03-11T08:31:26.639Z,19.21
2023-03-11T08:33:58.080Z,19.42
2023-03-11T08:36:24.775Z,19.50
2023-03-11T08:38:51.714Z,19.96
2023-03-11T08:41:18.832Z,20.98
2023-03-11T08:43:45.804Z,21.84
2023-03-11T08:46:36.214Z,21.62
2023-03-11T08:49:03.868Z,21.45
2023-03-11T08:51:33.110Z,21.73
2023-03-11T08:54:00.827Z,21.11
2023-03-11T08:56:27.990Z,20.22
2023-03-11T08:58:54.934Z,20.19
2023-03-11T09:01:23.016Z,20.36
2023-03-11T09:03:49.954Z,20.40
2023-03-11T09:06:17.553Z,20.53
2023-03-11T09:08:45.514Z,21.55
2023-03-11T09:11:13.259Z,21.31
2023-03-11T09:13:41.663Z,21.14
2023-03-11T09:16:16.943Z,21.07
2023-03-11T09:18:45.523Z,20.58
2023-03-11T09:21:12.525Z,20.45
2023-03-11T09:23:41.574Z,20.44
2023-03-11T09:26:09.539Z,20.94
2023-03-11T09:28:36.142Z,21.14
2023-03-11T09:31:02.970Z,21.40
2023-03-11T09:33:29.781Z,21.79
2023-03-11T09:35:58.361Z,22.39
2023-03-11T09:38:25.065Z,22.92
2023-03-11T09:40:57.435Z,23.45
2023-03-11T09:43:49.973Z,24.00
2023-03-11T09:46:31.762Z,24.45
2023-03-11T09:49:27.863Z,25.54
2023-03-11T09:52:10.391Z,26.09
2023-03-11T09:54:42.244Z,26.87
2023-03-11T09:57:16.128Z,27.65
2023-03-11T09:59:44.550Z,27.99
2023-03-11T10:02:18.299Z,28.66
2023-03-11T10:04:56.714Z,27.59
2023-03-11T10:07:32.106Z,28.05
2023-03-11T10:09:59.762Z,27.97
2023-03-11T10:13:10.319Z,26.51
2023-03-11T10:16:03.302Z,24.00
2023-03-11T10:18:49.225Z,22.42
2023-03-11T10:21:38.023Z,21.55
2023-03-11T10:24:17.159Z,20.92
2023-03-11T10:26:57.241Z,20.89
2023-03-11T10:29:30.211Z,21.88
2023-03-11T10:32:16.705Z,22.93
2023-03-11T10:34:51.450Z,24.74
2023-03-11T10:37:46.540Z,26.72
2023-03-11T10:40:27.621Z,28.64
2023-03-11T10:42:57.991Z,28.05
2023-03-11T10:45:26.703Z,27.09
2023-03-11T10:48:02.859Z,26.07
2023-03-11T10:50:36.332Z,27.71
2023-03-11T10:53:09.279Z,27.91
2023-03-11T10:55:45.902Z,26.78
2023-03-11T10:58:17.700Z,25.39
2023-03-11T11:00:44.770Z,25.46
2023-03-11T11:03:21.333Z,26.62
2023-03-11T11:05:59.027Z,27.85
2023-03-11T11:08:26.059Z,26.55
2023-03-11T11:11:01.313Z,23.66
2023-03-11T11:13:31.898Z,21.73
2023-03-11T11:16:17.129Z,20.69
2023-03-11T11:18:49.354Z,20.59
2023-03-11T11:21:35.486Z,21.08
2023-03-11T11:24:23.153Z,21.45
2023-03-11T11:27:20.167Z,20.74
2023-03-11T11:30:01.713Z,21.60
2023-03-11T11:32:28.596Z,22.09
2023-03-11T11:35:01.482Z,21.25
2023-03-11T11:37:37.250Z,19.69
2023-03-11T11:40:31.616Z,18.20
2023-03-11T11:43:01.126Z,16.76
2023-03-11T11:45:36.381Z,15.60
2023-03-11T11:48:26.878Z,14.80
2023-03-11T11:50:58.940Z,14.30
2023-03-11T11:53:41.540Z,13.95
2023-03-11T11:56:08.571Z,13.60
2023-03-11T11:58:35.849Z,13.39
2023-03-11T12:01:13.553Z,13.27
2023-03-11T12:03:59.673Z,13.12
2023-03-11T12:06:45.027Z,13.07
2023-03-11T12:09:31.908Z,13.08
2023-03-11T12:12:08.114Z,13.08
2023-03-11T12:14:54.850Z,13.01
2023-03-11T12:17:24.194Z,12.92
2023-03-11T12:20:03.145Z,12.81
2023-03-11T12:22:45.072Z,12.99
2023-03-11T12:25:29.550Z,13.57
2023-03-11T12:28:12.658Z,15.56
2023-03-11T12:30:46.093Z,17.44
2023-03-11T12:33:24.434Z,18.24
2023-03-11T12:35:57.463Z,18.28
2023-03-11T12:38:26.804Z,18.42
2023-03-11T12:41:04.140Z,18.26
2023-03-11T12:43:33.060Z,18.40
2023-03-11T12:46:04.449Z,18.89
2023-03-11T12:48:33.015Z,20.14
2023-03-11T12:51:00.372Z,21.10
2023-03-11T12:53:41.416Z,21.07
2023-03-11T12:56:22.890Z,19.97
2023-03-11T12:58:52.645Z,18.45
2023-03-11T13:01:44.812Z,17.54
2023-03-11T13:04:19.818Z,16.47
2023-03-11T13:07:09.497Z,15.74
2023-03-11T13:09:36.436Z,15.00
2023-03-11T13:12:03.290Z,14.95
2023-03-11T13:14:32.917Z,14.32
2023-03-11T13:17:24.015Z,13.81
2023-03-11T13:19:53.486Z,13.27
2023-03-11T13:22:41.566Z,12.81
2023-03-11T13:25:27.133Z,12.29
2023-03-11T13:28:01.646Z,11.82
2023-03-11T13:30:34.538Z,11.50
2023-03-11T13:33:10.087Z,11.20
2023-03-11T13:36:14.203Z,10.91
2023-03-11T13:39:07.801Z,10.66
2023-03-11T13:41:36.668Z,10.41
2023-03-11T13:44:18.757Z,10.17
2023-03-11T13:46:49.777Z,9.90
2023-03-11T13:49:38.158Z,9.81
2023-03-11T13:52:12.159Z,9.64
2023-03-11T13:54:44.835Z,9.46
2023-03-11T13:57:36.160Z,9.17
2023-03-11T14:00:17.144Z,8.89
2023-03-11T14:02:50.559Z,8.59
2023-03-11T14:05:22.904Z,8.33
2023-03-11T14:07:50.055Z,8.20
2023-03-11T14:10:16.694Z,8.06
2023-03-11T14:12:44.055Z,8.01
2023-03-11T14:15:23.580Z,8.00
2023-03-11T14:17:52.176Z,9.06
2023-03-11T14:20:24.620Z,9.90
2023-03-11T14:22:54.304Z,10.62
2023-03-11T14:25:30.402Z,11.05
2023-03-11T14:28:00.942Z,11.05
2023-03-11T14:30:33.366Z,10.89
2023-03-11T14:33:21.245Z,10.74
2023-03-11T14:35:59.960Z,10.23
2023-03-11T14:38:29.815Z,9.96
2023-03-11T14:40:59.860Z,9.72
2023-03-11T14:43:34.471Z,9.42
2023-03-11T14:46:03.969Z,9.27
2023-03-11T14:48:41.049Z,9.07
2023-03-11T14:51:16.564Z,8.81
2023-03-11T14:53:49.643Z,8.72
2023-03-11T14:56:21.236Z,8.67
2023-03-11T14:59:08.022Z,8.82
2023-03-11T15:01:41.340Z,9.06
2023-03-11T15:04:33.848Z,8.82
2023-03-11T15:07:03.595Z,8.65
2023-03-11T15:09:31.835Z,8.57
2023-03-11T15:12:03.611Z,8.48
2023-03-11T15:14:31.900Z,8.25
2023-03-11T15:17:43.888Z,7.93
2023-03-11T15:20:33.596Z,7.73
2023-03-11T15:23:02.962Z,7.44
2023-03-11T15:25:33.592Z,7.10
2023-03-11T15:28:21.637Z,6.84
2023-03-11T15:30:48.298Z,6.61
2023-03-11T15:33:32.599Z,6.39
2023-03-11T15:35:59.388Z,6.12
2023-03-11T15:38:27.901Z,5.95
2023-03-11T15:40:59.856Z,5.78
2023-03-11T15:43:26.550Z,5.65
2023-03-11T15:45:55.611Z,5.54
2023-03-11T15:48:23.122Z,5.52
2023-03-11T15:50:54.465Z,5.48
2023-03-11T15:53:23.948Z,5.46
2023-03-11T15:55:52.837Z,5.46
2023-03-11T15:58:20.943Z,5.46
2023-03-11T16:00:53.465Z,5.45
2023-03-11T16:03:20.448Z,5.50
2023-03-11T16:05:47.365Z,5.49
2023-03-11T16:08:14.745Z,5.45
2023-03-11T16:10:41.953Z,5.44
2023-03-11T16:13:12.842Z,5.41
2023-03-11T16:15:41.752Z,5.40
2023-03-11T16:18:09.936Z,5.41
2023-03-11T16:20:41.451Z,5.43
2023-03-11T16:23:19.817Z,5.47
2023-03-11T16:25:47.776Z,5.54
2023-03-11T16:28:16.122Z,5.57
2023-03-11T16:30:43.574Z,5.59
2023-03-11T16:33:10.402Z,5.58
2023-03-11T16:35:37.554Z,5.56
2023-03-11T16:38:06.149Z,5.58
2023-03-11T16:40:32.961Z,5.59
2023-03-11T16:43:05.154Z,5.63
2023-03-11T16:45:32.454Z,5.68
2023-03-11T16:47:59.294Z,5.73
2023-03-11T16:50:26.502Z,5.69
2023-03-11T16:52:55.852Z,5.67
2023-03-11T16:55:24.030Z,5.56
2023-03-11T16:57:51.159Z,5.50
2023-03-11T17:00:18.129Z,5.43
2023-03-11T17:02:44.942Z,5.31
2023-03-11T17:05:11.813Z,5.29
2023-03-11T17:07:40.024Z,5.20
2023-03-11T17:10:09.299Z,5.14
2023-03-11T17:12:36.209Z,5.08
2023-03-11T17:15:05.510Z,5.06
2023-03-11T17:17:32.336Z,5.02
2023-03-11T17:19:59.086Z,4.98
2023-03-11T17:22:25.860Z,4.92
2023-03-11T17:24:52.859Z,4.86
2023-03-11T17:27:19.498Z,4.84
2023-03-11T17:29:46.157Z,4.85
2023-03-11T17:32:17.225Z,4.85
2023-03-11T17:34:44.328Z,4.86
2023-03-11T17:37:11.084Z,4.85
2023-03-11T17:39:37.910Z,4.84
2023-03-11T17:42:05.400Z,4.79
2023-03-11T17:44:48.337Z,4.78
2023-03-11T17:47:19.122Z,4.82
2023-03-11T17:49:45.967Z,4.83
2023-03-11T17:52:12.729Z,4.88
2023-03-11T17:54:39.417Z,4.88
2023-03-11T17:57:07.102Z,4.87
2023-03-11T17:59:34.563Z,4.86
2023-03-11T18:02:01.804Z,4.85
2023-03-11T18:04:28.394Z,4.87
2023-03-11T18:06:55.629Z,4.88
2023-03-11T18:09:22.220Z,4.89
2023-03-11T18:11:48.999Z,4.88
2023-03-11T18:14:15.940Z,4.88
2023-03-11T18:16:44.111Z,4.94
2023-03-11T18:19:10.864Z,4.99
2023-03-11T18:21:37.584Z,5.00
2023-03-11T18:24:04.647Z,5.03
2023-03-11T18:26:31.411Z,5.00
2023-03-11T18:28:59.377Z,5.02
2023-03-11T18:31:28.718Z,5.01
2023-03-11T18:33:59.057Z,5.02
2023-03-11T18:36:31.454Z,5.01
2023-03-11T18:38:59.695Z,4.99
2023-03-11T18:41:30.268Z,4.96
2023-03-11T18:43:57.208Z,4.96
2023-03-11T18:46:25.858Z,4.89
2023-03-11T18:48:53.342Z,4.89
2023-03-11T18:51:19.970Z,4.93
2023-03-11T18:53:48.255Z,4.92
2023-03-11T18:56:16.530Z,4.92
2023-03-11T18:58:43.872Z,4.92
2023-03-11T19:01:16.918Z,4.93
2023-03-11T19:03:48.501Z,4.96
2023-03-11T19:06:16.109Z,4.98
2023-03-11T19:08:44.074Z,4.97
2023-03-11T19:11:15.196Z,4.94
2023-03-11T19:13:46.913Z,4.95
2023-03-11T19:16:20.318Z,4.99
2023-03-11T19:18:47.106Z,4.99
2023-03-11T19:21:15.373Z,4.96
2023-03-11T19:23:42.437Z,4.97
2023-03-11T19:26:09.796Z,4.97
2023-03-11T19:28:36.824Z,4.97
2023-03-11T19:31:04.443Z,4.98
2023-03-11T19:33:32.011Z,4.94
2023-03-11T19:36:01.258Z,4.95
2023-03-11T19:38:28.900Z,4.98
2023-03-11T19:41:07.971Z,4.94
2023-03-11T19:43:35.779Z,4.94
2023-03-11T19:46:04.234Z,4.92
2023-03-11T19:48:31.711Z,4.85
2023-03-11T19:50:59.020Z,4.77
2023-03-11T19:53:26.485Z,4.70
2023-03-11T19:55:55.312Z,4.64
2023-03-11T19:58:23.303Z,4.65
2023-03-11T20:00:50.519Z,4.62
2023-03-11T20:03:18.608Z,4.54
2023-03-11T20:05:46.416Z,4.49
2023-03-11T20:08:16.429Z,4.44
2023-03-11T20:10:46.299Z,4.35
2023-03-11T20:13:14.983Z,4.30
2023-03-11T20:15:41.776Z,4.26
2023-03-11T20:18:08.630Z,4.18
2023-03-11T20:20:38.539Z,4.15
2023-03-11T20:23:05.452Z,4.16
2023-03-11T20:25:32.423Z,4.12
2023-03-11T20:28:00.877Z,4.05
2023-03-11T20:30:28.592Z,3.98
2023-03-11T20:32:55.539Z,3.87
2023-03-11T20:35:22.804Z,3.82
2023-03-11T20:37:49.685Z,3.77
2023-03-11T20:40:18.310Z,3.75
2023-03-11T20:42:46.450Z,3.74
2023-03-11T20:45:21.043Z,3.67
2023-03-11T20:47:49.225Z,3.59
2023-03-11T20:50:16.027Z,3.62
2023-03-11T20:52:42.771Z,3.63
2023-03-11T20:55:10.336Z,3.61
2023-03-11T20:57:38.939Z,3.55
2023-03-11T21:00:10.625Z,3.51
2023-03-11T21:02:39.255Z,3.46
2023-03-11T21:05:08.099Z,3.42
2023-03-11T21:07:35.781Z,3.36
2023-03-11T21:10:08.310Z,3.34
2023-03-11T21:12:34.922Z,3.31
2023-03-11T21:15:02.170Z,3.22
2023-03-11T21:17:28.965Z,3.18
2023-03-11T21:19:56.684Z,3.13
2023-03-11T21:22:23.601Z,3.07
2023-03-11T21:24:54.454Z,3.00
2023-03-11T21:27:25.722Z,2.96
2023-03-11T21:29:57.316Z,2.97
2023-03-11T21:32:25.492Z,2.98
2023-03-11T21:34:59.773Z,2.93
2023-03-11T21:37:27.988Z,2.91
2023-03-11T21:39:55.166Z,2.89
2023-03-11T21:42:21.909Z,2.86
2023-03-11T21:44:50.671Z,2.85
2023-03-11T21:47:17.374Z,2.80
2023-03-11T21:49:44.260Z,2.75
2023-03-11T21:52:11.041Z,2.71
2023-03-11T21:54:37.827Z,2.69
2023-03-11T21:57:04.539Z,2.70
2023-03-11T21:59:31.379Z,2.67
2023-03-11T22:02:02.130Z,2.68
2023-03-11T22:04:31.032Z,2.68
2023-03-11T22:06:58.237Z,2.67
2023-03-11T22:09:25.623Z,2.59
2023-03-11T22:11:52.750Z,2.56
2023-03-11T22:14:19.800Z,2.53
2023-03-11T22:16:46.731Z,2.56
2023-03-11T22:19:13.758Z,2.59
2023-03-11T22:21:40.469Z,2.56
2023-03-11T22:24:07.557Z,2.60
2023-03-11T22:26:34.266Z,2.61
2023-03-11T22:29:03.748Z,2.61
2023-03-11T22:31:30.927Z,2.60
2023-03-11T22:33:57.760Z,2.60
2023-03-11T22:36:24.414Z,2.62
2023-03-11T22:38:51.144Z,2.64
2023-03-11T22:41:19.715Z,2.64
2023-03-11T22:43:46.973Z,2.65
2023-03-11T22:46:14.256Z,2.64
2023-03-11T22:48:41.239Z,2.62
2023-03-11T22:51:08.242Z,2.61
2023-03-11T22:53:34.982Z,2.59
2023-03-11T22:56:07.454Z,2.61
2023-03-11T22:58:34.934Z,2.53
2023-03-11T23:01:03.393Z,2.54
2023-03-11T23:03:32.827Z,2.53
2023-03-11T23:06:00.548Z,2.51
2023-03-11T23:08:27.385Z,2.47
2023-03-11T23:10:54.249Z,2.44
2023-03-11T23:13:20.856Z,2.45
2023-03-11T23:15:47.995Z,2.46
2023-03-11T23:18:15.538Z,2.46
2023-03-11T23:20:43.012Z,2.46
2023-03-11T23:23:11.114Z,2.46
2023-03-11T23:25:39.293Z,2.48
2023-03-11T23:28:06.828Z,2.46
2023-03-11T23:30:34.701Z,2.45
2023-03-11T23:33:02.351Z,2.41
2023-03-11T23:35:29.827Z,2.39
2023-03-11T23:37:56.737Z,2.38
2023-03-11T23:40:23.510Z,2.33
2023-03-11T23:42:50.272Z,2.35
2023-03-11T23:45:18.429Z,2.35
2023-03-11T23:47:45.049Z,2.29
2023-03-11T23:50:11.915Z,2.28
2023-03-11T23:52:38.708Z,2.27
2023-03-11T23:55:06.379Z,2.17
2023-03-11T23:57:36.627Z,2.08
